createdAt,value
2022-10-31T00:01:29.033Z,1.60
2022-10-31T00:03:57.376Z,2.40
2022-10-31T00:06:25.961Z,2.47
2022-10-31T00:08:59.670Z,1.77
2022-10-31T00:11:28.612Z,3.22
2022-10-31T00:13:58.101Z,2.53
2022-10-31T00:16:27.974Z,2.47
2022-10-31T00:18:58.378Z,2.47
2022-10-31T00:21:27.222Z,2.03
2022-10-31T00:23:55.521Z,1.88
2022-10-31T00:26:24.782Z,4.13
2022-10-31T00:28:52.928Z,3.30
2022-10-31T00:31:23.812Z,4.05
2022-10-31T00:34:00.204Z,2.55
2022-10-31T00:36:28.717Z,3.00
2022-10-31T00:39:01.221Z,3.65
2022-10-31T00:41:30.747Z,4.05
2022-10-31T00:44:03.645Z,4.55
2022-10-31T00:46:32.095Z,2.78
2022-10-31T00:49:00.168Z,5.68
2022-10-31T00:51:28.535Z,2.95
2022-10-31T00:53:56.516Z,4.60
2022-10-31T00:56:24.810Z,3.15
2022-10-31T00:58:56.850Z,3.47
2022-10-31T01:01:25.129Z,4.43
2022-10-31T01:03:57.414Z,3.63
2022-10-31T01:06:25.434Z,4.50
2022-10-31T01:08:57.044Z,4.00
2022-10-31T01:11:28.565Z,3.88
2022-10-31T01:13:57.904Z,3.33
2022-10-31T01:16:28.041Z,4.40
2022-10-31T01:18:58.347Z,5.65
2022-10-31T01:21:30.677Z,10.27
2022-10-31T01:24:03.001Z,6.07
2022-10-31T01:26:32.463Z,6.45
2022-10-31T01:29:03.180Z,4.93
2022-10-31T01:31:36.539Z,7.25
2022-10-31T01:34:05.013Z,4.65
2022-10-31T01:36:34.717Z,3.78
2022-10-31T01:39:05.305Z,6.20
2022-10-31T01:41:39.503Z,4.65
2022-10-31T01:44:43.175Z,6.78
2022-10-31T01:47:17.653Z,6.43
2022-10-31T01:49:55.341Z,5.55
2022-10-31T01:52:27.465Z,5.78
2022-10-31T01:55:03.066Z,6.93
2022-10-31T01:57:33.443Z,4.28
2022-10-31T02:00:04.293Z,4.85
2022-10-31T02:02:43.064Z,8.20
2022-10-31T02:05:24.993Z,6.57
2022-10-31T02:07:58.241Z,9.75
2022-10-31T02:10:32.629Z,6.15
2022-10-31T02:13:04.016Z,6.03
2022-10-31T02:15:34.073Z,5.63
2022-10-31T02:18:03.627Z,6.25
2022-10-31T02:20:35.164Z,6.50
2022-10-31T02:23:41.665Z,5.60
2022-10-31T02:26:34.812Z,5.85
2022-10-31T02:29:38.529Z,4.85
2022-10-31T02:32:13.381Z,6.30
2022-10-31T02:34:52.757Z,7.00
2022-10-31T02:37:27.868Z,7.00
2022-10-31T02:40:04.532Z,4.57
2022-10-31T02:43:07.484Z,6.32
2022-10-31T02:45:41.257Z,4.43
2022-10-31T02:48:14.371Z,6.80
2022-10-31T02:53:18.394Z,5.45
2022-10-31T02:55:56.965Z,5.53
2022-10-31T02:58:28.076Z,5.03
2022-10-31T03:01:24.131Z,6.47
2022-10-31T03:04:07.926Z,6.55
2022-10-31T03:06:43.106Z,7.15
2022-10-31T03:09:20.102Z,4.45
2022-10-31T03:11:55.131Z,4.22
2022-10-31T03:14:30.371Z,4.15
2022-10-31T03:17:04.146Z,6.53
2022-10-31T03:19:44.019Z,5.43
2022-10-31T03:22:18.768Z,3.47
2022-10-31T03:24:48.806Z,4.18
2022-10-31T03:27:21.057Z,4.40
2022-10-31T03:29:55.971Z,6.85
2022-10-31T03:32:28.293Z,6.75
2022-10-31T03:35:01.426Z,4.30
2022-10-31T03:37:34.737Z,4.50
2022-10-31T03:40:09.911Z,7.07
2022-10-31T03:42:42.608Z,4.90
2022-10-31T03:45:31.460Z,5.18
2022-10-31T03:48:01.249Z,4.30
2022-10-31T03:50:41.173Z,4.43
2022-10-31T03:53:18.951Z,7.60
2022-10-31T03:56:03.531Z,6.07
2022-10-31T03:58:38.279Z,7.07
2022-10-31T04:01:08.749Z,4.80
2022-10-31T04:03:39.718Z,5.90
2022-10-31T04:06:18.971Z,5.47
2022-10-31T04:08:53.400Z,5.43
2022-10-31T04:11:25.798Z,7.78
2022-10-31T04:14:14.321Z,8.13
2022-10-31T04:16:45.807Z,5.38
2022-10-31T04:19:17.438Z,5.93
2022-10-31T04:21:46.711Z,4.03
2022-10-31T04:24:14.577Z,5.68
2022-10-31T04:26:50.341Z,4.65
2022-10-31T04:29:20.713Z,4.47
2022-10-31T04:31:48.601Z,12.23
2022-10-31T04:34:16.561Z,9.52
2022-10-31T04:36:48.992Z,4.68
2022-10-31T04:39:22.657Z,5.18
2022-10-31T04:42:16.394Z,6.18
2022-10-31T04:44:44.156Z,8.02
2022-10-31T04:47:12.036Z,4.85
2022-10-31T04:49:39.882Z,5.10
2022-10-31T04:52:12.045Z,6.10
2022-10-31T04:54:40.101Z,4.53
2022-10-31T04:57:29.375Z,5.05
2022-10-31T04:59:57.283Z,6.03
2022-10-31T05:02:30.645Z,5.63
2022-10-31T05:05:00.163Z,6.22
2022-10-31T05:07:29.493Z,6.30
2022-10-31T05:09:57.318Z,5.28
2022-10-31T05:12:25.296Z,5.13
2022-10-31T05:15:17.002Z,6.63
2022-10-31T05:18:04.459Z,3.42
2022-10-31T05:23:32.019Z,7.72
2022-10-31T05:26:01.192Z,4.05
2022-10-31T05:28:29.195Z,4.55
2022-10-31T05:30:57.004Z,7.22
2022-10-31T05:33:24.901Z,6.15
2022-10-31T05:36:11.170Z,5.95
2022-10-31T05:39:01.898Z,6.38
2022-10-31T05:41:36.704Z,5.05
2022-10-31T05:44:14.888Z,3.80
2022-10-31T05:47:11.553Z,4.80
2022-10-31T05:50:15.097Z,3.72
2022-10-31T05:53:05.837Z,3.03
2022-10-31T05:55:42.821Z,5.25
2022-10-31T05:58:14.076Z,6.43
2022-10-31T06:00:49.246Z,5.53
2022-10-31T06:03:17.436Z,5.65
2022-10-31T06:06:11.050Z,7.38
2022-10-31T06:08:42.596Z,5.13
2022-10-31T06:11:22.290Z,6.35
2022-10-31T06:14:10.494Z,4.90
2022-10-31T06:16:46.565Z,4.38
2022-10-31T06:19:34.643Z,4.30
2022-10-31T06:22:02.423Z,3.58
2022-10-31T06:24:30.903Z,4.07
2022-10-31T06:27:09.786Z,4.20
2022-10-31T06:29:43.754Z,4.22
2022-10-31T06:32:16.300Z,4.18
2022-10-31T06:34:49.027Z,4.13
2022-10-31T06:37:17.700Z,5.75
2022-10-31T06:39:48.699Z,5.47
2022-10-31T06:42:19.335Z,5.55
2022-10-31T06:44:47.634Z,7.18
2022-10-31T06:47:38.056Z,5.97
2022-10-31T06:50:18.456Z,5.03
2022-10-31T06:52:52.400Z,7.20
2022-10-31T06:55:25.514Z,7.15
2022-10-31T06:57:57.668Z,6.82
2022-10-31T07:00:32.285Z,6.40
2022-10-31T07:03:07.888Z,6.72
2022-10-31T07:05:36.662Z,5.60
2022-10-31T07:08:06.373Z,5.68
2022-10-31T07:10:40.049Z,5.25
2022-10-31T07:13:13.921Z,5.15
2022-10-31T07:15:46.421Z,7.90
2022-10-31T07:18:14.874Z,5.70
2022-10-31T07:20:45.918Z,6.43
2022-10-31T07:23:16.779Z,4.95
2022-10-31T07:25:50.977Z,4.88
2022-10-31T07:28:26.814Z,5.53
2022-10-31T07:30:56.460Z,4.63
2022-10-31T07:33:26.679Z,6.65
2022-10-31T07:36:16.557Z,5.10
2022-10-31T07:38:46.586Z,5.82
2022-10-31T07:41:15.143Z,6.25
2022-10-31T07:46:44.786Z,6.05
2022-10-31T07:49:49.954Z,3.85
2022-10-31T07:52:28.284Z,4.28
2022-10-31T07:55:15.729Z,4.88
2022-10-31T07:57:53.270Z,4.88
2022-10-31T08:00:22.545Z,5.57
2022-10-31T08:02:59.300Z,8.90
2022-10-31T08:05:46.926Z,3.83
2022-10-31T08:08:41.051Z,4.85
2022-10-31T08:11:15.503Z,4.00
2022-10-31T08:13:44.768Z,6.15
2022-10-31T08:16:17.129Z,5.57
2022-10-31T08:19:18.265Z,4.72
2022-10-31T08:21:55.876Z,4.15
2022-10-31T08:24:25.975Z,3.92
2022-10-31T08:26:55.776Z,4.75
2022-10-31T08:29:23.597Z,5.28
2022-10-31T08:32:01.501Z,4.57
2022-10-31T08:35:04.675Z,5.05
2022-10-31T08:37:54.371Z,4.53
2022-10-31T08:40:22.425Z,4.25
2022-10-31T08:42:58.557Z,4.85
2022-10-31T08:45:30.579Z,6.85
2022-10-31T08:48:01.681Z,3.90
2022-10-31T08:50:31.496Z,4.88
2022-10-31T08:53:05.970Z,4.35
2022-10-31T08:55:36.156Z,4.22
2022-10-31T08:58:07.375Z,5.63
2022-10-31T09:00:45.922Z,3.97
2022-10-31T09:03:23.581Z,9.02
2022-10-31T09:05:59.423Z,5.40
2022-10-31T09:08:30.752Z,4.30
2022-10-31T09:10:59.202Z,4.50
2022-10-31T09:13:54.329Z,3.45
2022-10-31T09:16:40.681Z,4.70
2022-10-31T09:19:16.532Z,3.70
2022-10-31T09:21:47.392Z,6.43
2022-10-31T09:24:15.778Z,4.03
2022-10-31T09:26:44.297Z,5.25
2022-10-31T09:29:18.648Z,6.07
2022-10-31T09:31:50.301Z,5.18
2022-10-31T09:34:33.337Z,3.75
2022-10-31T09:37:10.619Z,6.47
2022-10-31T09:39:38.680Z,7.50
2022-10-31T09:42:43.741Z,6.28
2022-10-31T09:45:23.390Z,6.80
2022-10-31T09:48:08.443Z,6.25
2022-10-31T09:50:43.949Z,6.97
2022-10-31T09:56:06.874Z,6.32
2022-10-31T09:58:39.580Z,6.47
2022-10-31T10:01:22.979Z,4.80
2022-10-31T10:04:03.456Z,6.13
2022-10-31T10:06:56.903Z,3.58
2022-10-31T10:09:45.754Z,6.70
2022-10-31T10:13:30.015Z,3.50
2022-10-31T10:16:11.384Z,4.53
2022-10-31T10:18:49.092Z,3.92
2022-10-31T10:21:34.104Z,5.10
2022-10-31T10:24:22.850Z,6.32
2022-10-31T10:27:09.764Z,5.43
2022-10-31T10:29:44.825Z,3.95
2022-10-31T10:32:19.928Z,5.78
2022-10-31T10:34:51.475Z,9.43
2022-10-31T10:37:38.711Z,4.45
2022-10-31T10:40:16.069Z,5.75
2022-10-31T10:43:04.520Z,10.18
2022-10-31T10:45:53.458Z,7.28
2022-10-31T10:48:34.180Z,5.28
2022-10-31T10:51:03.702Z,7.68
2022-10-31T10:54:03.225Z,6.28
2022-10-31T10:56:47.133Z,3.17
2022-10-31T10:59:18.831Z,5.32
2022-10-31T11:01:50.920Z,3.53
2022-10-31T11:04:29.980Z,2.67
2022-10-31T11:07:02.914Z,2.78
2022-10-31T11:09:31.142Z,3.15
2022-10-31T11:12:01.024Z,7.38
2022-10-31T11:14:29.563Z,5.22
2022-10-31T11:17:19.736Z,6.07
2022-10-31T11:19:47.584Z,5.47
2022-10-31T11:22:18.981Z,5.15
2022-10-31T11:24:47.910Z,5.57
2022-10-31T11:27:21.808Z,4.68
2022-10-31T11:29:49.665Z,2.35
2022-10-31T11:32:22.729Z,3.20
2022-10-31T11:34:54.511Z,3.40
2022-10-31T11:37:24.889Z,4.63
2022-10-31T11:39:56.084Z,4.63
2022-10-31T11:42:28.772Z,2.65
2022-10-31T11:44:58.197Z,3.72
2022-10-31T11:47:29.854Z,4.57
2022-10-31T11:49:59.651Z,2.60
2022-10-31T11:52:30.498Z,2.08
2022-10-31T11:55:01.555Z,3.35
2022-10-31T11:57:32.285Z,4.47
2022-10-31T12:00:02.161Z,3.92
2022-10-31T12:02:40.020Z,5.03
2022-10-31T12:05:13.720Z,3.67
2022-10-31T12:07:41.579Z,2.40
2022-10-31T12:10:13.476Z,2.10
2022-10-31T12:13:04.962Z,3.88
2022-10-31T12:15:35.151Z,3.45
2022-10-31T12:18:20.227Z,2.13
2022-10-31T12:20:59.882Z,2.47
2022-10-31T12:23:37.484Z,4.10
2022-10-31T12:26:17.078Z,3.78
2022-10-31T12:29:02.500Z,3.47
2022-10-31T12:31:44.507Z,3.00
2022-10-31T12:34:55.650Z,3.00
2022-10-31T12:37:41.430Z,5.05
2022-10-31T12:40:27.476Z,2.40
2022-10-31T12:43:09.598Z,2.25
2022-10-31T12:45:55.539Z,2.63
2022-10-31T12:48:40.031Z,2.30
2022-10-31T12:51:13.644Z,1.42
2022-10-31T12:53:55.151Z,4.15
2022-10-31T12:56:46.224Z,5.20
2022-10-31T12:59:21.255Z,4.85
2022-10-31T13:01:58.284Z,5.28
2022-10-31T13:04:42.774Z,4.70
2022-10-31T13:07:15.230Z,6.88
2022-10-31T13:09:49.884Z,7.32
2022-10-31T13:12:21.043Z,8.50
2022-10-31T13:14:54.271Z,7.80
2022-10-31T13:17:31.403Z,10.38
2022-10-31T13:20:14.491Z,8.45
2022-10-31T13:22:46.054Z,7.95
2022-10-31T13:25:18.389Z,6.93
2022-10-31T13:28:02.375Z,4.22
2022-10-31T13:30:34.217Z,4.18
2022-10-31T13:33:08.055Z,3.22
2022-10-31T13:35:49.648Z,3.65
2022-10-31T13:38:25.500Z,3.47
2022-10-31T13:41:00.391Z,5.40
2022-10-31T13:43:36.338Z,2.75
2022-10-31T13:46:25.643Z,2.80
2022-10-31T13:48:54.872Z,4.65
2022-10-31T13:51:29.299Z,10.77
2022-10-31T13:54:03.045Z,6.60
2022-10-31T13:56:34.019Z,5.25
2022-10-31T13:59:20.520Z,7.28
2022-10-31T14:01:51.996Z,12.43
2022-10-31T14:04:25.703Z,5.35
2022-10-31T14:09:32.956Z,5.63
2022-10-31T14:12:04.967Z,4.32
2022-10-31T14:14:47.683Z,7.18
2022-10-31T14:17:24.369Z,9.20
2022-10-31T14:20:01.897Z,4.57
2022-10-31T14:22:38.684Z,11.50
2022-10-31T14:25:31.691Z,10.50
2022-10-31T14:28:00.917Z,7.90
2022-10-31T14:30:31.189Z,13.18
2022-10-31T14:33:01.517Z,13.00
2022-10-31T14:35:53.661Z,11.95
2022-10-31T14:38:42.910Z,11.35
2022-10-31T14:41:30.704Z,9.13
2022-10-31T14:44:45.719Z,6.60
2022-10-31T14:47:26.352Z,7.47
2022-10-31T14:50:26.478Z,8.63
2022-10-31T14:52:59.326Z,9.88
2022-10-31T14:55:28.786Z,8.40
2022-10-31T14:58:01.734Z,13.48
2022-10-31T15:00:31.435Z,8.17
2022-10-31T15:03:08.068Z,11.05
2022-10-31T15:05:42.798Z,7.50
2022-10-31T15:08:28.877Z,5.45
2022-10-31T15:10:56.925Z,13.55
2022-10-31T15:13:24.882Z,8.13
2022-10-31T15:15:56.565Z,16.88
2022-10-31T15:18:27.834Z,10.95
2022-10-31T15:20:58.656Z,11.90
2022-10-31T15:23:30.113Z,9.07
2022-10-31T15:26:02.537Z,8.18
2022-10-31T15:28:32.217Z,8.98
2022-10-31T15:31:02.279Z,11.88
2022-10-31T15:33:38.737Z,12.20
2022-10-31T15:36:08.721Z,11.15
2022-10-31T15:38:37.956Z,8.55
2022-10-31T15:41:08.260Z,8.40
2022-10-31T15:43:39.196Z,11.18
2022-10-31T15:46:11.253Z,13.15
2022-10-31T15:48:41.560Z,10.27
2022-10-31T15:51:09.600Z,11.45
2022-10-31T15:53:45.759Z,10.30
2022-10-31T15:56:21.252Z,9.52
2022-10-31T15:58:52.517Z,8.85
2022-10-31T16:01:27.737Z,14.23
2022-10-31T16:04:07.395Z,9.70
2022-10-31T16:06:44.448Z,8.05
2022-10-31T16:09:24.293Z,7.38
2022-10-31T16:11:57.086Z,7.18
2022-10-31T16:14:27.812Z,8.35
2022-10-31T16:16:58.040Z,11.05
2022-10-31T16:19:30.610Z,9.75
2022-10-31T16:22:07.075Z,7.38
2022-10-31T16:24:46.623Z,8.18
2022-10-31T16:27:24.347Z,8.00
2022-10-31T16:29:52.269Z,7.90
2022-10-31T16:32:35.209Z,5.95
2022-10-31T16:35:19.460Z,7.85
2022-10-31T16:37:47.314Z,7.78
2022-10-31T16:40:17.497Z,9.25
2022-10-31T16:42:56.147Z,7.45
2022-10-31T16:45:29.656Z,8.30
2022-10-31T16:48:05.045Z,7.30
2022-10-31T16:50:32.831Z,9.77
2022-10-31T16:53:13.259Z,6.90
2022-10-31T16:55:47.963Z,6.43
2022-10-31T16:58:20.061Z,6.85
2022-10-31T17:00:48.033Z,6.13
2022-10-31T17:03:15.845Z,11.57
2022-10-31T17:05:44.050Z,12.32
2022-10-31T17:08:12.125Z,8.43
2022-10-31T17:10:40.569Z,7.40
2022-10-31T17:13:20.726Z,8.85
2022-10-31T17:15:51.829Z,7.60
2022-10-31T17:18:24.449Z,9.10
2022-10-31T17:20:57.889Z,6.32
2022-10-31T17:23:26.247Z,5.47
2022-10-31T17:25:54.083Z,6.82
2022-10-31T17:28:23.267Z,6.90
2022-10-31T17:30:51.125Z,7.03
2022-10-31T17:33:19.165Z,7.15
2022-10-31T17:35:47.662Z,5.68
2022-10-31T17:38:15.443Z,7.88
2022-10-31T17:40:43.234Z,7.50
2022-10-31T17:43:26.308Z,9.30
2022-10-31T17:45:55.621Z,7.80
2022-10-31T17:48:23.661Z,8.95
2022-10-31T17:50:51.805Z,9.65
2022-10-31T17:53:19.651Z,5.32
2022-10-31T17:55:47.575Z,8.10
2022-10-31T17:58:24.789Z,7.40
2022-10-31T18:00:56.779Z,6.95
2022-10-31T18:03:29.364Z,6.05
2022-10-31T18:06:00.210Z,6.38
2022-10-31T18:08:28.532Z,8.60
2022-10-31T18:11:00.391Z,5.35
2022-10-31T18:13:28.792Z,5.78
2022-10-31T18:15:56.767Z,6.55
2022-10-31T18:18:32.048Z,11.73
2022-10-31T18:20:59.875Z,6.03
2022-10-31T18:23:27.728Z,10.15
2022-10-31T18:25:55.979Z,7.78
2022-10-31T18:28:23.924Z,7.28
2022-10-31T18:30:51.941Z,7.50
2022-10-31T18:33:19.890Z,7.88
2022-10-31T18:35:49.185Z,6.30
2022-10-31T18:38:16.962Z,6.60
2022-10-31T18:40:44.806Z,5.07
2022-10-31T18:43:12.592Z,6.85
2022-10-31T18:45:47.149Z,10.63
2022-10-31T18:48:18.241Z,7.93
2022-10-31T18:50:48.996Z,7.20
2022-10-31T18:53:20.097Z,12.52
2022-10-31T18:55:50.249Z,10.02
2022-10-31T18:58:18.516Z,14.80
2022-10-31T19:00:52.424Z,13.18
2022-10-31T19:03:26.159Z,14.30
2022-10-31T19:05:57.106Z,11.10
2022-10-31T19:08:29.465Z,13.70
2022-10-31T19:10:57.229Z,12.23
2022-10-31T19:13:24.967Z,16.27
2022-10-31T19:15:52.748Z,13.82
2022-10-31T19:18:20.647Z,10.40
2022-10-31T19:20:48.528Z,14.00
2022-10-31T19:23:17.464Z,16.10
2022-10-31T19:25:59.360Z,13.98
2022-10-31T19:28:27.554Z,15.88
2022-10-31T19:30:55.614Z,17.58
2022-10-31T19:33:23.494Z,17.83
2022-10-31T19:35:51.274Z,24.05
2022-10-31T19:38:19.058Z,19.42
2022-10-31T19:40:47.802Z,15.25
2022-10-31T19:43:20.207Z,14.93
2022-10-31T19:45:57.324Z,21.58
2022-10-31T19:48:25.734Z,20.33
2022-10-31T19:50:58.532Z,20.40
2022-10-31T19:53:31.956Z,17.63
2022-10-31T19:56:00.811Z,18.07
2022-10-31T19:58:33.257Z,24.83
2022-10-31T20:01:06.951Z,17.60
2022-10-31T20:03:34.867Z,18.02
2022-10-31T20:06:07.291Z,23.77
2022-10-31T20:08:39.476Z,19.88
2022-10-31T20:11:07.743Z,21.98
2022-10-31T20:13:38.064Z,21.58
2022-10-31T20:16:08.773Z,21.33
2022-10-31T20:18:37.659Z,16.90
2022-10-31T20:21:07.565Z,19.50
2022-10-31T20:23:36.391Z,20.95
2022-10-31T20:26:05.099Z,17.15
2022-10-31T20:28:40.036Z,29.52
2022-10-31T20:31:10.752Z,20.27
2022-10-31T20:33:42.078Z,16.45
2022-10-31T20:36:11.453Z,16.95
2022-10-31T20:38:39.982Z,18.58
2022-10-31T20:41:10.956Z,22.55
2022-10-31T20:43:42.940Z,20.83
2022-10-31T20:46:13.201Z,16.08
2022-10-31T20:48:41.279Z,18.00
2022-10-31T20:51:13.718Z,25.48
2022-10-31T20:53:41.572Z,21.58
2022-10-31T20:56:11.604Z,21.23
2022-10-31T20:58:42.427Z,16.92
2022-10-31T21:01:14.814Z,20.75
2022-10-31T21:03:43.386Z,21.85
2022-10-31T21:06:12.126Z,21.88
2022-10-31T21:08:40.656Z,30.38
2022-10-31T21:11:13.760Z,21.08
2022-10-31T21:13:47.747Z,19.30
2022-10-31T21:16:20.477Z,30.83
2022-10-31T21:18:49.820Z,21.30
2022-10-31T21:21:24.121Z,21.13
2022-10-31T21:23:56.379Z,24.40
2022-10-31T21:26:30.064Z,20.33
2022-10-31T21:29:01.943Z,21.05
2022-10-31T21:31:30.263Z,22.80
2022-10-31T21:33:58.086Z,22.50
2022-10-31T21:36:26.678Z,23.67
2022-10-31T21:38:55.905Z,22.55
2022-10-31T21:41:24.701Z,21.73
2022-10-31T21:43:55.174Z,20.67
2022-10-31T21:46:26.218Z,21.60
2022-10-31T21:48:54.376Z,15.98
2022-10-31T21:51:23.904Z,25.25
2022-10-31T21:54:09.906Z,21.42
2022-10-31T21:56:38.285Z,19.10
2022-10-31T21:59:06.367Z,21.75
2022-10-31T22:01:38.443Z,19.02
2022-10-31T22:04:12.455Z,18.17
2022-10-31T22:06:42.539Z,17.33
2022-10-31T22:09:19.690Z,16.05
2022-10-31T22:11:48.250Z,18.30
2022-10-31T22:14:16.659Z,13.68
2022-10-31T22:16:46.029Z,15.20
2022-10-31T22:19:16.679Z,15.18
2022-10-31T22:21:47.440Z,15.88
2022-10-31T22:24:16.505Z,20.70
2022-10-31T22:26:45.932Z,16.60
2022-10-31T22:29:15.601Z,14.55
2022-10-31T22:31:57.246Z,16.10
2022-10-31T22:34:28.765Z,16.80
2022-10-31T22:36:56.849Z,12.50
2022-10-31T22:39:24.703Z,14.55
2022-10-31T22:41:52.449Z,13.75
2022-10-31T22:44:20.848Z,14.18
2022-10-31T22:46:52.354Z,13.18
2022-10-31T22:49:20.089Z,15.02
2022-10-31T22:51:51.556Z,14.15
2022-10-31T22:54:20.179Z,18.13
2022-10-31T22:56:50.758Z,14.45
2022-10-31T22:59:19.095Z,17.17
2022-10-31T23:01:46.939Z,10.90
2022-10-31T23:04:17.232Z,14.02
2022-10-31T23:06:51.000Z,10.98
2022-10-31T23:09:18.951Z,11.43
2022-10-31T23:11:49.896Z,13.93
2022-10-31T23:14:21.143Z,11.82
2022-10-31T23:16:57.447Z,13.55
2022-10-31T23:19:28.422Z,10.73
2022-10-31T23:21:59.774Z,9.88
2022-10-31T23:24:36.575Z,10.13
2022-10-31T23:27:06.679Z,8.23
2022-10-31T23:29:39.375Z,8.77
2022-10-31T23:32:10.759Z,9.23
2022-10-31T23:34:39.918Z,8.68
2022-10-31T23:37:15.286Z,9.32
2022-10-31T23:39:43.525Z,7.97
2022-10-31T23:42:11.657Z,7.60
2022-10-31T23:44:39.374Z,10.13
2022-10-31T23:47:07.886Z,7.70
2022-10-31T23:49:35.987Z,8.60
2022-10-31T23:52:06.056Z,8.70
2022-10-31T23:54:34.188Z,10.13
2022-10-31T23:57:02.731Z,10.70
2022-10-31T23:59:31.116Z,10.55
